sensor_id;sensor_type;location;lat;lon;timestamp;P1;durP1;ratioP1;P2;durP2;ratioP2
55186;SDS011;55457;52.002;5.464;2023-07-13T00:00:17;3.88;;;1.13;;
55186;SDS011;55457;52.002;5.464;2023-07-13T00:02:43;3.67;;;0.90;;
55186;SDS011;55457;52.002;5.464;2023-07-13T00:05:08;7.15;;;1.13;;
55186;SDS011;55457;52.002;5.464;2023-07-13T00:07:34;3.70;;;1.10;;
55186;SDS011;55457;52.002;5.464;2023-07-13T00:10:01;4.05;;;1.40;;
55186;SDS011;55457;52.002;5.464;2023-07-13T00:12:31;4.28;;;1.13;;
55186;SDS011;55457;52.002;5.464;2023-07-13T00:14:58;6.82;;;1.70;;
55186;SDS011;55457;52.002;5.464;2023-07-13T00:17:26;3.25;;;0.70;;
55186;SDS011;55457;52.002;5.464;2023-07-13T00:19:53;5.70;;;0.90;;
55186;SDS011;55457;52.002;5.464;2023-07-13T00:22:20;5.43;;;1.10;;
55186;SDS011;55457;52.002;5.464;2023-07-13T00:24:46;4.22;;;1.10;;
55186;SDS011;55457;52.002;5.464;2023-07-13T00:27:12;2.78;;;1.00;;
55186;SDS011;55457;52.002;5.464;2023-07-13T00:29:38;5.68;;;1.52;;
55186;SDS011;55457;52.002;5.464;2023-07-13T00:32:04;4.38;;;1.17;;
55186;SDS011;55457;52.002;5.464;2023-07-13T00:34:31;4.72;;;0.98;;
55186;SDS011;55457;52.002;5.464;2023-07-13T00:36:56;3.97;;;0.88;;
55186;SDS011;55457;52.002;5.464;2023-07-13T00:39:22;3.67;;;1.23;;
55186;SDS011;55457;52.002;5.464;2023-07-13T00:41:48;5.95;;;1.92;;
55186;SDS011;55457;52.002;5.464;2023-07-13T00:44:14;4.72;;;1.05;;
55186;SDS011;55457;52.002;5.464;2023-07-13T00:46:40;3.83;;;0.98;;
55186;SDS011;55457;52.002;5.464;2023-07-13T00:49:06;3.97;;;1.00;;
55186;SDS011;55457;52.002;5.464;2023-07-13T00:54:15;8.10;;;1.23;;
55186;SDS011;55457;52.002;5.464;2023-07-13T00:56:44;8.10;;;2.17;;
55186;SDS011;55457;52.002;5.464;2023-07-13T00:59:11;5.05;;;1.40;;
55186;SDS011;55457;52.002;5.464;2023-07-13T01:01:39;3.92;;;1.33;;
55186;SDS011;55457;52.002;5.464;2023-07-13T01:04:05;2.58;;;0.80;;
55186;SDS011;55457;52.002;5.464;2023-07-13T01:06:33;3.75;;;0.93;;
55186;SDS011;55457;52.002;5.464;2023-07-13T01:09:01;2.78;;;1.30;;
55186;SDS011;55457;52.002;5.464;2023-07-13T01:11:27;2.22;;;0.88;;
55186;SDS011;55457;52.002;5.464;2023-07-13T01:13:52;4.82;;;0.85;;
55186;SDS011;55457;52.002;5.464;2023-07-13T01:16:28;4.18;;;1.10;;
55186;SDS011;55457;52.002;5.464;2023-07-13T01:18:56;3.05;;;1.20;;
55186;SDS011;55457;52.002;5.464;2023-07-13T01:21:23;6.40;;;1.15;;
55186;SDS011;55457;52.002;5.464;2023-07-13T01:23:50;5.38;;;1.40;;
55186;SDS011;55457;52.002;5.464;2023-07-13T01:26:16;5.78;;;1.00;;
55186;SDS011;55457;52.002;5.464;2023-07-13T01:28:41;3.88;;;1.02;;
55186;SDS011;55457;52.002;5.464;2023-07-13T01:31:07;2.83;;;1.00;;
55186;SDS011;55457;52.002;5.464;2023-07-13T01:33:34;2.85;;;0.80;;
55186;SDS011;55457;52.002;5.464;2023-07-13T01:36:01;7.65;;;1.00;;
55186;SDS011;55457;52.002;5.464;2023-07-13T01:38:27;8.50;;;1.42;;
55186;SDS011;55457;52.002;5.464;2023-07-13T01:40:53;5.00;;;1.17;;
55186;SDS011;55457;52.002;5.464;2023-07-13T01:43:18;3.40;;;0.65;;
55186;SDS011;55457;52.002;5.464;2023-07-13T01:45:45;3.00;;;0.75;;
55186;SDS011;55457;52.002;5.464;2023-07-13T01:48:11;3.25;;;0.90;;
55186;SDS011;55457;52.002;5.464;2023-07-13T01:50:36;2.17;;;0.65;;
55186;SDS011;55457;52.002;5.464;2023-07-13T01:53:02;3.40;;;1.15;;
55186;SDS011;55457;52.002;5.464;2023-07-13T01:55:28;4.68;;;1.27;;
55186;SDS011;55457;52.002;5.464;2023-07-13T01:57:54;2.58;;;1.05;;
55186;SDS011;55457;52.002;5.464;2023-07-13T02:00:20;2.90;;;1.00;;
55186;SDS011;55457;52.002;5.464;2023-07-13T02:02:45;3.38;;;1.10;;
55186;SDS011;55457;52.002;5.464;2023-07-13T02:05:11;6.05;;;1.23;;
55186;SDS011;55457;52.002;5.464;2023-07-13T02:07:38;3.05;;;1.13;;
55186;SDS011;55457;52.002;5.464;2023-07-13T02:10:04;2.80;;;1.05;;
55186;SDS011;55457;52.002;5.464;2023-07-13T02:12:31;2.97;;;0.80;;
55186;SDS011;55457;52.002;5.464;2023-07-13T02:14:56;2.75;;;1.20;;
55186;SDS011;55457;52.002;5.464;2023-07-13T02:17:22;3.60;;;0.90;;
55186;SDS011;55457;52.002;5.464;2023-07-13T02:19:47;5.40;;;0.95;;
55186;SDS011;55457;52.002;5.464;2023-07-13T02:22:13;2.75;;;0.85;;
55186;SDS011;55457;52.002;5.464;2023-07-13T02:24:39;3.58;;;1.10;;
55186;SDS011;55457;52.002;5.464;2023-07-13T02:27:04;3.00;;;1.05;;
55186;SDS011;55457;52.002;5.464;2023-07-13T02:29:30;4.55;;;1.23;;
55186;SDS011;55457;52.002;5.464;2023-07-13T02:31:55;4.47;;;0.73;;
55186;SDS011;55457;52.002;5.464;2023-07-13T02:34:21;4.22;;;1.05;;
55186;SDS011;55457;52.002;5.464;2023-07-13T02:36:46;2.50;;;0.82;;
55186;SDS011;55457;52.002;5.464;2023-07-13T02:39:12;2.53;;;0.85;;
55186;SDS011;55457;52.002;5.464;2023-07-13T02:41:38;4.30;;;0.80;;
55186;SDS011;55457;52.002;5.464;2023-07-13T02:44:04;7.05;;;0.95;;
55186;SDS011;55457;52.002;5.464;2023-07-13T02:46:30;2.58;;;0.98;;
55186;SDS011;55457;52.002;5.464;2023-07-13T02:49:00;3.33;;;0.90;;
55186;SDS011;55457;52.002;5.464;2023-07-13T02:51:25;4.00;;;1.05;;
55186;SDS011;55457;52.002;5.464;2023-07-13T02:53:51;3.95;;;1.02;;
55186;SDS011;55457;52.002;5.464;2023-07-13T02:56:17;1.95;;;0.75;;
55186;SDS011;55457;52.002;5.464;2023-07-13T02:58:44;2.55;;;1.05;;
55186;SDS011;55457;52.002;5.464;2023-07-13T03:01:10;1.33;;;0.60;;
55186;SDS011;55457;52.002;5.464;2023-07-13T03:03:36;2.83;;;1.00;;
55186;SDS011;55457;52.002;5.464;2023-07-13T03:06:03;3.28;;;1.23;;
55186;SDS011;55457;52.002;5.464;2023-07-13T03:08:31;3.78;;;1.10;;
55186;SDS011;55457;52.002;5.464;2023-07-13T03:11:03;5.60;;;1.75;;
55186;SDS011;55457;52.002;5.464;2023-07-13T03:13:30;4.28;;;0.98;;
55186;SDS011;55457;52.002;5.464;2023-07-13T03:15:56;4.30;;;0.82;;
55186;SDS011;55457;52.002;5.464;2023-07-13T03:18:21;3.55;;;0.88;;
55186;SDS011;55457;52.002;5.464;2023-07-13T03:20:50;4.85;;;1.08;;
55186;SDS011;55457;52.002;5.464;2023-07-13T03:23:16;2.88;;;1.08;;
55186;SDS011;55457;52.002;5.464;2023-07-13T03:25:41;2.85;;;1.02;;
55186;SDS011;55457;52.002;5.464;2023-07-13T03:28:07;2.53;;;0.80;;
55186;SDS011;55457;52.002;5.464;2023-07-13T03:30:32;3.83;;;1.13;;
55186;SDS011;55457;52.002;5.464;2023-07-13T03:32:58;2.85;;;0.85;;
55186;SDS011;55457;52.002;5.464;2023-07-13T03:35:23;2.55;;;1.10;;
55186;SDS011;55457;52.002;5.464;2023-07-13T03:37:49;4.60;;;1.42;;
55186;SDS011;55457;52.002;5.464;2023-07-13T03:40:14;5.07;;;1.13;;
55186;SDS011;55457;52.002;5.464;2023-07-13T03:42:40;6.40;;;1.02;;
55186;SDS011;55457;52.002;5.464;2023-07-13T03:45:05;4.55;;;1.20;;
55186;SDS011;55457;52.002;5.464;2023-07-13T03:47:31;4.25;;;1.52;;
55186;SDS011;55457;52.002;5.464;2023-07-13T03:49:57;5.43;;;1.42;;
55186;SDS011;55457;52.002;5.464;2023-07-13T03:52:22;2.58;;;1.25;;
55186;SDS011;55457;52.002;5.464;2023-07-13T03:54:48;5.65;;;1.25;;
55186;SDS011;55457;52.002;5.464;2023-07-13T03:57:13;4.95;;;1.15;;
55186;SDS011;55457;52.002;5.464;2023-07-13T03:59:39;3.42;;;1.00;;
55186;SDS011;55457;52.002;5.464;2023-07-13T04:02:04;6.28;;;1.20;;
55186;SDS011;55457;52.002;5.464;2023-07-13T04:04:30;3.85;;;1.02;;
55186;SDS011;55457;52.002;5.464;2023-07-13T04:06:56;2.88;;;1.05;;
55186;SDS011;55457;52.002;5.464;2023-07-13T04:09:23;4.43;;;1.17;;
55186;SDS011;55457;52.002;5.464;2023-07-13T04:11:49;3.28;;;1.17;;
55186;SDS011;55457;52.002;5.464;2023-07-13T04:14:15;4.32;;;1.63;;
55186;SDS011;55457;52.002;5.464;2023-07-13T04:16:40;3.58;;;1.25;;
55186;SDS011;55457;52.002;5.464;2023-07-13T04:19:06;7.28;;;2.08;;
55186;SDS011;55457;52.002;5.464;2023-07-13T04:21:33;4.65;;;0.82;;
55186;SDS011;55457;52.002;5.464;2023-07-13T04:23:58;3.90;;;1.20;;
55186;SDS011;55457;52.002;5.464;2023-07-13T04:26:24;3.40;;;1.23;;
55186;SDS011;55457;52.002;5.464;2023-07-13T04:28:50;4.32;;;1.35;;
55186;SDS011;55457;52.002;5.464;2023-07-13T04:31:17;3.40;;;1.08;;
55186;SDS011;55457;52.002;5.464;2023-07-13T04:33:42;4.18;;;1.20;;
55186;SDS011;55457;52.002;5.464;2023-07-13T04:36:08;3.65;;;1.17;;
55186;SDS011;55457;52.002;5.464;2023-07-13T04:38:34;2.67;;;1.50;;
55186;SDS011;55457;52.002;5.464;2023-07-13T04:41:01;5.32;;;2.03;;
55186;SDS011;55457;52.002;5.464;2023-07-13T04:43:29;3.33;;;1.27;;
55186;SDS011;55457;52.002;5.464;2023-07-13T04:45:54;6.50;;;1.38;;
55186;SDS011;55457;52.002;5.464;2023-07-13T04:48:20;3.47;;;1.25;;
55186;SDS011;55457;52.002;5.464;2023-07-13T04:50:46;4.93;;;1.95;;
55186;SDS011;55457;52.002;5.464;2023-07-13T04:53:12;5.03;;;1.20;;
55186;SDS011;55457;52.002;5.464;2023-07-13T04:55:38;3.50;;;1.10;;
55186;SDS011;55457;52.002;5.464;2023-07-13T04:58:04;5.53;;;1.48;;
55186;SDS011;55457;52.002;5.464;2023-07-13T05:00:30;5.57;;;1.15;;
55186;SDS011;55457;52.002;5.464;2023-07-13T05:02:56;3.72;;;1.17;;
55186;SDS011;55457;52.002;5.464;2023-07-13T05:05:23;4.18;;;1.55;;
55186;SDS011;55457;52.002;5.464;2023-07-13T05:07:51;10.48;;;1.90;;
55186;SDS011;55457;52.002;5.464;2023-07-13T05:10:17;5.82;;;1.63;;
55186;SDS011;55457;52.002;5.464;2023-07-13T05:12:42;6.35;;;1.45;;
55186;SDS011;55457;52.002;5.464;2023-07-13T05:15:08;5.00;;;1.42;;
55186;SDS011;55457;52.002;5.464;2023-07-13T05:17:35;3.67;;;1.10;;
55186;SDS011;55457;52.002;5.464;2023-07-13T05:20:00;6.25;;;2.17;;
55186;SDS011;55457;52.002;5.464;2023-07-13T05:22:26;5.35;;;1.80;;
55186;SDS011;55457;52.002;5.464;2023-07-13T05:24:51;3.38;;;1.70;;
55186;SDS011;55457;52.002;5.464;2023-07-13T05:27:17;5.78;;;1.63;;
55186;SDS011;55457;52.002;5.464;2023-07-13T05:29:42;9.57;;;1.88;;
55186;SDS011;55457;52.002;5.464;2023-07-13T05:32:07;6.47;;;2.55;;
55186;SDS011;55457;52.002;5.464;2023-07-13T05:34:33;7.07;;;1.90;;
55186;SDS011;55457;52.002;5.464;2023-07-13T05:36:58;6.47;;;2.00;;
55186;SDS011;55457;52.002;5.464;2023-07-13T05:39:24;5.53;;;1.63;;
55186;SDS011;55457;52.002;5.464;2023-07-13T05:41:51;9.02;;;2.38;;
55186;SDS011;55457;52.002;5.464;2023-07-13T05:44:16;4.85;;;1.67;;
55186;SDS011;55457;52.002;5.464;2023-07-13T05:46:42;5.95;;;1.60;;
55186;SDS011;55457;52.002;5.464;2023-07-13T05:49:07;5.35;;;1.73;;
55186;SDS011;55457;52.002;5.464;2023-07-13T05:51:32;4.13;;;1.42;;
55186;SDS011;55457;52.002;5.464;2023-07-13T05:53:58;7.45;;;2.10;;
55186;SDS011;55457;52.002;5.464;2023-07-13T05:56:23;4.85;;;1.65;;
55186;SDS011;55457;52.002;5.464;2023-07-13T05:58:50;6.03;;;1.70;;
55186;SDS011;55457;52.002;5.464;2023-07-13T06:01:16;6.85;;;1.88;;
55186;SDS011;55457;52.002;5.464;2023-07-13T06:03:42;5.22;;;1.65;;
55186;SDS011;55457;52.002;5.464;2023-07-13T06:06:08;5.53;;;2.08;;
55186;SDS011;55457;52.002;5.464;2023-07-13T06:08:35;10.20;;;2.22;;
55186;SDS011;55457;52.002;5.464;2023-07-13T06:11:02;5.40;;;1.85;;
55186;SDS011;55457;52.002;5.464;2023-07-13T06:13:28;7.93;;;1.92;;
55186;SDS011;55457;52.002;5.464;2023-07-13T06:15:53;5.20;;;1.60;;
55186;SDS011;55457;52.002;5.464;2023-07-13T06:18:19;4.82;;;1.90;;
55186;SDS011;55457;52.002;5.464;2023-07-13T06:20:44;8.13;;;2.60;;
55186;SDS011;55457;52.002;5.464;2023-07-13T06:23:09;8.32;;;1.98;;
55186;SDS011;55457;52.002;5.464;2023-07-13T06:25:35;8.98;;;2.08;;
55186;SDS011;55457;52.002;5.464;2023-07-13T06:28:00;6.43;;;2.05;;
55186;SDS011;55457;52.002;5.464;2023-07-13T06:30:26;4.13;;;1.80;;
55186;SDS011;55457;52.002;5.464;2023-07-13T06:32:52;6.18;;;2.20;;
55186;SDS011;55457;52.002;5.464;2023-07-13T06:35:18;11.82;;;2.60;;
55186;SDS011;55457;52.002;5.464;2023-07-13T06:37:43;13.43;;;3.80;;
55186;SDS011;55457;52.002;5.464;2023-07-13T06:40:09;11.80;;;3.72;;
55186;SDS011;55457;52.002;5.464;2023-07-13T06:42:34;9.65;;;2.78;;
55186;SDS011;55457;52.002;5.464;2023-07-13T06:45:00;6.68;;;2.55;;
55186;SDS011;55457;52.002;5.464;2023-07-13T06:47:26;9.50;;;3.40;;
55186;SDS011;55457;52.002;5.464;2023-07-13T06:49:52;12.38;;;3.30;;
55186;SDS011;55457;52.002;5.464;2023-07-13T06:52:17;9.13;;;2.88;;
55186;SDS011;55457;52.002;5.464;2023-07-13T06:54:42;10.10;;;3.65;;
55186;SDS011;55457;52.002;5.464;2023-07-13T06:57:08;7.00;;;2.55;;
55186;SDS011;55457;52.002;5.464;2023-07-13T06:59:34;10.20;;;2.92;;
55186;SDS011;55457;52.002;5.464;2023-07-13T07:01:59;11.57;;;3.10;;
55186;SDS011;55457;52.002;5.464;2023-07-13T07:04:24;8.27;;;3.17;;
55186;SDS011;55457;52.002;5.464;2023-07-13T07:06:50;9.70;;;3.42;;
55186;SDS011;55457;52.002;5.464;2023-07-13T07:09:15;11.05;;;3.78;;
55186;SDS011;55457;52.002;5.464;2023-07-13T07:11:41;9.95;;;4.13;;
55186;SDS011;55457;52.002;5.464;2023-07-13T07:14:07;9.25;;;3.08;;
55186;SDS011;55457;52.002;5.464;2023-07-13T07:16:33;6.53;;;2.97;;
55186;SDS011;55457;52.002;5.464;2023-07-13T07:18:58;6.57;;;2.35;;
55186;SDS011;55457;52.002;5.464;2023-07-13T07:21:24;7.20;;;2.70;;
55186;SDS011;55457;52.002;5.464;2023-07-13T07:23:51;8.35;;;3.10;;
55186;SDS011;55457;52.002;5.464;2023-07-13T07:26:17;13.35;;;3.58;;
55186;SDS011;55457;52.002;5.464;2023-07-13T07:28:43;9.75;;;3.25;;
55186;SDS011;55457;52.002;5.464;2023-07-13T07:31:08;8.88;;;3.00;;
55186;SDS011;55457;52.002;5.464;2023-07-13T07:33:34;12.00;;;3.20;;
55186;SDS011;55457;52.002;5.464;2023-07-13T07:35:59;8.02;;;2.72;;
55186;SDS011;55457;52.002;5.464;2023-07-13T07:38:25;12.15;;;3.47;;
55186;SDS011;55457;52.002;5.464;2023-07-13T07:40:51;9.52;;;4.28;;
55186;SDS011;55457;52.002;5.464;2023-07-13T07:43:17;7.35;;;3.05;;
55186;SDS011;55457;52.002;5.464;2023-07-13T07:45:43;7.15;;;2.40;;
55186;SDS011;55457;52.002;5.464;2023-07-13T07:48:10;11.23;;;3.40;;
55186;SDS011;55457;52.002;5.464;2023-07-13T07:50:35;6.63;;;3.22;;
55186;SDS011;55457;52.002;5.464;2023-07-13T07:53:02;7.40;;;3.50;;
55186;SDS011;55457;52.002;5.464;2023-07-13T07:55:28;9.50;;;3.10;;
55186;SDS011;55457;52.002;5.464;2023-07-13T07:57:54;9.75;;;4.32;;
55186;SDS011;55457;52.002;5.464;2023-07-13T08:00:21;10.02;;;3.75;;
55186;SDS011;55457;52.002;5.464;2023-07-13T08:02:47;11.73;;;4.93;;
55186;SDS011;55457;52.002;5.464;2023-07-13T08:05:13;11.48;;;4.55;;
55186;SDS011;55457;52.002;5.464;2023-07-13T08:07:38;7.70;;;3.67;;
55186;SDS011;55457;52.002;5.464;2023-07-13T08:10:07;8.30;;;3.10;;
55186;SDS011;55457;52.002;5.464;2023-07-13T08:12:34;7.88;;;3.22;;
55186;SDS011;55457;52.002;5.464;2023-07-13T08:15:00;8.93;;;3.58;;
55186;SDS011;55457;52.002;5.464;2023-07-13T08:17:26;9.40;;;4.28;;
55186;SDS011;55457;52.002;5.464;2023-07-13T08:19:51;7.72;;;3.33;;
55186;SDS011;55457;52.002;5.464;2023-07-13T08:22:17;6.88;;;3.50;;
55186;SDS011;55457;52.002;5.464;2023-07-13T08:24:42;6.45;;;3.00;;
55186;SDS011;55457;52.002;5.464;2023-07-13T08:27:08;8.93;;;2.58;;
55186;SDS011;55457;52.002;5.464;2023-07-13T08:29:36;4.63;;;2.13;;
55186;SDS011;55457;52.002;5.464;2023-07-13T08:34:37;8.40;;;2.70;;
55186;SDS011;55457;52.002;5.464;2023-07-13T08:37:02;4.90;;;2.50;;
55186;SDS011;55457;52.002;5.464;2023-07-13T08:39:29;5.18;;;2.60;;
55186;SDS011;55457;52.002;5.464;2023-07-13T08:41:56;4.60;;;2.05;;
55186;SDS011;55457;52.002;5.464;2023-07-13T08:44:51;4.47;;;2.10;;
55186;SDS011;55457;52.002;5.464;2023-07-13T08:47:21;4.10;;;1.83;;
55186;SDS011;55457;52.002;5.464;2023-07-13T08:49:48;4.10;;;2.17;;
55186;SDS011;55457;52.002;5.464;2023-07-13T08:54:58;7.30;;;2.33;;
55186;SDS011;55457;52.002;5.464;2023-07-13T08:57:33;5.80;;;1.98;;
55186;SDS011;55457;52.002;5.464;2023-07-13T08:59:59;5.38;;;2.00;;
55186;SDS011;55457;52.002;5.464;2023-07-13T09:04:54;4.63;;;2.22;;
55186;SDS011;55457;52.002;5.464;2023-07-13T09:10:08;2.75;;;1.85;;
55186;SDS011;55457;52.002;5.464;2023-07-13T09:15:45;4.30;;;1.70;;
55186;SDS011;55457;52.002;5.464;2023-07-13T09:21:05;7.05;;;2.40;;
55186;SDS011;55457;52.002;5.464;2023-07-13T09:28:33;3.92;;;1.70;;
55186;SDS011;55457;52.002;5.464;2023-07-13T09:31:16;5.47;;;2.22;;
55186;SDS011;55457;52.002;5.464;2023-07-13T09:33:48;4.15;;;1.65;;
55186;SDS011;55457;52.002;5.464;2023-07-13T09:38:45;3.67;;;1.95;;
55186;SDS011;55457;52.002;5.464;2023-07-13T09:41:21;5.25;;;1.88;;
55186;SDS011;55457;52.002;5.464;2023-07-13T09:44:07;5.10;;;1.17;;
55186;SDS011;55457;52.002;5.464;2023-07-13T09:46:38;2.67;;;1.13;;
55186;SDS011;55457;52.002;5.464;2023-07-13T09:49:09;2.70;;;1.48;;
55186;SDS011;55457;52.002;5.464;2023-07-13T09:51:36;9.57;;;2.33;;
55186;SDS011;55457;52.002;5.464;2023-07-13T09:54:03;6.47;;;1.52;;
55186;SDS011;55457;52.002;5.464;2023-07-13T09:56:29;3.33;;;1.50;;
55186;SDS011;55457;52.002;5.464;2023-07-13T09:58:55;6.25;;;1.58;;
55186;SDS011;55457;52.002;5.464;2023-07-13T10:01:35;4.10;;;2.17;;
55186;SDS011;55457;52.002;5.464;2023-07-13T10:04:12;2.90;;;1.80;;
55186;SDS011;55457;52.002;5.464;2023-07-13T10:06:41;4.75;;;1.80;;
55186;SDS011;55457;52.002;5.464;2023-07-13T10:09:08;4.65;;;1.48;;
55186;SDS011;55457;52.002;5.464;2023-07-13T10:11:35;4.78;;;1.30;;
55186;SDS011;55457;52.002;5.464;2023-07-13T10:14:23;2.58;;;1.10;;
55186;SDS011;55457;52.002;5.464;2023-07-13T10:16:56;2.88;;;1.45;;
55186;SDS011;55457;52.002;5.464;2023-07-13T10:19:27;3.83;;;1.50;;
55186;SDS011;55457;52.002;5.464;2023-07-13T10:24:30;4.80;;;1.35;;
55186;SDS011;55457;52.002;5.464;2023-07-13T10:27:03;6.45;;;2.13;;
55186;SDS011;55457;52.002;5.464;2023-07-13T10:29:32;3.92;;;1.90;;
55186;SDS011;55457;52.002;5.464;2023-07-13T10:32:01;2.77;;;1.23;;
55186;SDS011;55457;52.002;5.464;2023-07-13T10:34:28;5.13;;;1.65;;
55186;SDS011;55457;52.002;5.464;2023-07-13T10:36:54;2.80;;;1.40;;
55186;SDS011;55457;52.002;5.464;2023-07-13T10:39:23;2.50;;;1.75;;
55186;SDS011;55457;52.002;5.464;2023-07-13T10:41:53;3.08;;;1.17;;
55186;SDS011;55457;52.002;5.464;2023-07-13T10:44:30;2.97;;;1.55;;
55186;SDS011;55457;52.002;5.464;2023-07-13T10:46:58;5.13;;;2.10;;
55186;SDS011;55457;52.002;5.464;2023-07-13T10:49:29;6.97;;;2.17;;
55186;SDS011;55457;52.002;5.464;2023-07-13T10:51:56;3.47;;;1.83;;
55186;SDS011;55457;52.002;5.464;2023-07-13T10:54:34;2.42;;;1.40;;
55186;SDS011;55457;52.002;5.464;2023-07-13T10:57:18;2.25;;;1.33;;
55186;SDS011;55457;52.002;5.464;2023-07-13T10:59:49;2.85;;;1.52;;
55186;SDS011;55457;52.002;5.464;2023-07-13T11:02:39;4.22;;;1.15;;
55186;SDS011;55457;52.002;5.464;2023-07-13T11:13:37;4.13;;;1.85;;
55186;SDS011;55457;52.002;5.464;2023-07-13T11:18:48;9.32;;;1.77;;
55186;SDS011;55457;52.002;5.464;2023-07-13T11:21:17;5.10;;;1.85;;
55186;SDS011;55457;52.002;5.464;2023-07-13T11:23:44;11.18;;;2.20;;
55186;SDS011;55457;52.002;5.464;2023-07-13T11:29:53;7.40;;;1.80;;
55186;SDS011;55457;52.002;5.464;2023-07-13T11:31:57;3.33;;;1.60;;
55186;SDS011;55457;52.002;5.464;2023-07-13T11:34:28;5.53;;;1.58;;
55186;SDS011;55457;52.002;5.464;2023-07-13T11:36:59;4.65;;;1.63;;
55186;SDS011;55457;52.002;5.464;2023-07-13T11:39:33;5.00;;;1.40;;
55186;SDS011;55457;52.002;5.464;2023-07-13T11:42:02;5.95;;;1.55;;
55186;SDS011;55457;52.002;5.464;2023-07-13T11:44:32;7.00;;;1.80;;
55186;SDS011;55457;52.002;5.464;2023-07-13T11:47:00;2.85;;;1.55;;
55186;SDS011;55457;52.002;5.464;2023-07-13T11:49:40;5.32;;;2.30;;
55186;SDS011;55457;52.002;5.464;2023-07-13T11:52:11;4.35;;;1.90;;
55186;SDS011;55457;52.002;5.464;2023-07-13T11:54:52;4.25;;;2.05;;
55186;SDS011;55457;52.002;5.464;2023-07-13T11:57:28;3.80;;;1.52;;
55186;SDS011;55457;52.002;5.464;2023-07-13T12:00:00;4.28;;;1.67;;
55186;SDS011;55457;52.002;5.464;2023-07-13T12:04:58;4.60;;;1.50;;
55186;SDS011;55457;52.002;5.464;2023-07-13T12:07:28;6.55;;;1.77;;
55186;SDS011;55457;52.002;5.464;2023-07-13T12:10:02;9.30;;;2.13;;
55186;SDS011;55457;52.002;5.464;2023-07-13T12:12:52;4.03;;;1.70;;
55186;SDS011;55457;52.002;5.464;2023-07-13T12:15:23;2.60;;;1.38;;
55186;SDS011;55457;52.002;5.464;2023-07-13T12:17:52;4.03;;;2.10;;
55186;SDS011;55457;52.002;5.464;2023-07-13T12:20:20;4.38;;;1.63;;
55186;SDS011;55457;52.002;5.464;2023-07-13T12:22:52;2.47;;;1.52;;
55186;SDS011;55457;52.002;5.464;2023-07-13T12:25:18;4.07;;;1.95;;
55186;SDS011;55457;52.002;5.464;2023-07-13T12:27:48;4.47;;;1.88;;
55186;SDS011;55457;52.002;5.464;2023-07-13T12:30:25;3.50;;;1.58;;
55186;SDS011;55457;52.002;5.464;2023-07-13T12:32:55;3.58;;;1.60;;
55186;SDS011;55457;52.002;5.464;2023-07-13T12:35:38;4.68;;;2.22;;
55186;SDS011;55457;52.002;5.464;2023-07-13T12:38:10;4.80;;;1.70;;
55186;SDS011;55457;52.002;5.464;2023-07-13T12:40:36;3.25;;;1.60;;
55186;SDS011;55457;52.002;5.464;2023-07-13T12:43:02;3.25;;;1.60;;
55186;SDS011;55457;52.002;5.464;2023-07-13T12:45:32;6.70;;;1.63;;
55186;SDS011;55457;52.002;5.464;2023-07-13T12:47:59;3.00;;;1.63;;
55186;SDS011;55457;52.002;5.464;2023-07-13T12:50:34;2.28;;;1.58;;
55186;SDS011;55457;52.002;5.464;2023-07-13T12:53:06;2.75;;;1.45;;
55186;SDS011;55457;52.002;5.464;2023-07-13T12:55:44;2.95;;;1.75;;
55186;SDS011;55457;52.002;5.464;2023-07-13T12:58:18;4.05;;;1.83;;
55186;SDS011;55457;52.002;5.464;2023-07-13T13:00:50;3.55;;;1.40;;
55186;SDS011;55457;52.002;5.464;2023-07-13T13:03:23;4.00;;;1.73;;
55186;SDS011;55457;52.002;5.464;2023-07-13T13:06:37;4.88;;;1.92;;
55186;SDS011;55457;52.002;5.464;2023-07-13T13:08:52;4.43;;;1.60;;
55186;SDS011;55457;52.002;5.464;2023-07-13T13:11:20;5.22;;;2.60;;
55186;SDS011;55457;52.002;5.464;2023-07-13T13:13:47;4.22;;;2.33;;
55186;SDS011;55457;52.002;5.464;2023-07-13T13:18:52;4.22;;;2.08;;
55186;SDS011;55457;52.002;5.464;2023-07-13T13:21:19;2.83;;;1.30;;
55186;SDS011;55457;52.002;5.464;2023-07-13T13:23:45;3.20;;;1.80;;
55186;SDS011;55457;52.002;5.464;2023-07-13T13:26:11;3.75;;;1.40;;
55186;SDS011;55457;52.002;5.464;2023-07-13T13:28:41;3.90;;;2.00;;
55186;SDS011;55457;52.002;5.464;2023-07-13T13:31:08;6.43;;;1.55;;
55186;SDS011;55457;52.002;5.464;2023-07-13T13:33:37;3.63;;;2.05;;
55186;SDS011;55457;52.002;5.464;2023-07-13T13:36:12;3.42;;;1.50;;
55186;SDS011;55457;52.002;5.464;2023-07-13T13:38:43;2.42;;;1.60;;
55186;SDS011;55457;52.002;5.464;2023-07-13T13:41:09;3.22;;;1.30;;
55186;SDS011;55457;52.002;5.464;2023-07-13T13:43:36;1.88;;;1.20;;
55186;SDS011;55457;52.002;5.464;2023-07-13T13:46:02;2.95;;;1.73;;
55186;SDS011;55457;52.002;5.464;2023-07-13T13:48:37;4.13;;;1.40;;
55186;SDS011;55457;52.002;5.464;2023-07-13T13:51:15;3.85;;;1.60;;
55186;SDS011;55457;52.002;5.464;2023-07-13T13:53:43;6.68;;;2.15;;
55186;SDS011;55457;52.002;5.464;2023-07-13T13:56:08;2.15;;;1.25;;
55186;SDS011;55457;52.002;5.464;2023-07-13T13:58:34;4.13;;;1.92;;
55186;SDS011;55457;52.002;5.464;2023-07-13T14:00:59;3.42;;;1.90;;
55186;SDS011;55457;52.002;5.464;2023-07-13T14:03:26;9.07;;;1.95;;
55186;SDS011;55457;52.002;5.464;2023-07-13T14:05:53;3.08;;;2.03;;
55186;SDS011;55457;52.002;5.464;2023-07-13T14:08:19;2.20;;;1.58;;
55186;SDS011;55457;52.002;5.464;2023-07-13T14:10:46;2.65;;;1.63;;
55186;SDS011;55457;52.002;5.464;2023-07-13T14:13:18;2.42;;;1.70;;
55186;SDS011;55457;52.002;5.464;2023-07-13T14:15:48;2.40;;;1.50;;
55186;SDS011;55457;52.002;5.464;2023-07-13T14:18:14;4.20;;;1.88;;
55186;SDS011;55457;52.002;5.464;2023-07-13T14:20:43;3.45;;;1.70;;
55186;SDS011;55457;52.002;5.464;2023-07-13T14:23:10;2.97;;;1.67;;
55186;SDS011;55457;52.002;5.464;2023-07-13T14:25:37;3.22;;;1.75;;
55186;SDS011;55457;52.002;5.464;2023-07-13T14:28:10;3.83;;;1.95;;
55186;SDS011;55457;52.002;5.464;2023-07-13T14:30:46;2.83;;;1.83;;
55186;SDS011;55457;52.002;5.464;2023-07-13T14:33:12;3.78;;;1.63;;
55186;SDS011;55457;52.002;5.464;2023-07-13T14:35:37;3.00;;;1.50;;
55186;SDS011;55457;52.002;5.464;2023-07-13T14:38:03;1.95;;;1.23;;
55186;SDS011;55457;52.002;5.464;2023-07-13T14:40:30;2.97;;;1.55;;
55186;SDS011;55457;52.002;5.464;2023-07-13T14:42:57;4.50;;;1.40;;
55186;SDS011;55457;52.002;5.464;2023-07-13T14:45:23;1.60;;;1.20;;
55186;SDS011;55457;52.002;5.464;2023-07-13T14:47:49;2.75;;;1.85;;
55186;SDS011;55457;52.002;5.464;2023-07-13T14:50:16;3.70;;;1.58;;
55186;SDS011;55457;52.002;5.464;2023-07-13T14:52:44;3.03;;;1.30;;
55186;SDS011;55457;52.002;5.464;2023-07-13T14:55:13;3.63;;;1.20;;
55186;SDS011;55457;52.002;5.464;2023-07-13T14:57:40;3.75;;;1.58;;
55186;SDS011;55457;52.002;5.464;2023-07-13T15:00:11;4.72;;;1.80;;
55186;SDS011;55457;52.002;5.464;2023-07-13T15:02:43;1.98;;;0.95;;
55186;SDS011;55457;52.002;5.464;2023-07-13T15:05:33;2.67;;;1.23;;
55186;SDS011;55457;52.002;5.464;2023-07-13T15:07:59;4.00;;;1.42;;
55186;SDS011;55457;52.002;5.464;2023-07-13T15:10:31;2.50;;;1.17;;
55186;SDS011;55457;52.002;5.464;2023-07-13T15:12:59;4.97;;;1.50;;
55186;SDS011;55457;52.002;5.464;2023-07-13T15:15:42;2.80;;;1.52;;
55186;SDS011;55457;52.002;5.464;2023-07-13T15:18:09;3.95;;;1.10;;
55186;SDS011;55457;52.002;5.464;2023-07-13T15:20:37;4.78;;;1.30;;
55186;SDS011;55457;52.002;5.464;2023-07-13T15:23:03;3.75;;;1.42;;
55186;SDS011;55457;52.002;5.464;2023-07-13T15:25:30;3.75;;;1.38;;
55186;SDS011;55457;52.002;5.464;2023-07-13T15:27:58;2.25;;;1.30;;
55186;SDS011;55457;52.002;5.464;2023-07-13T15:30:25;4.65;;;1.20;;
55186;SDS011;55457;52.002;5.464;2023-07-13T15:32:55;2.88;;;1.20;;
55186;SDS011;55457;52.002;5.464;2023-07-13T15:35:25;3.58;;;1.10;;
55186;SDS011;55457;52.002;5.464;2023-07-13T15:37:51;3.83;;;1.13;;
55186;SDS011;55457;52.002;5.464;2023-07-13T15:40:17;3.17;;;1.45;;